首页
METAR-TAF:

METAR-TAF

机场 :

Northeast Alabama Regional Airport

加兹登, 阿拉巴马州, 美国

纬度: 33-58N, 经度: 086-05W, 海拔: 173米

当前天气观测

该预报发布于15分钟前的17:56 UTC
风速3节,风向多变
温度 27°C
湿度 84%
气压 1023 hPa
能見度: 16.1公里
少量云层高于1800英尺
小雨

METAR: KGAD 241756Z AUTO VRB03KT 10SM -RA FEW018 27/24 A3021 RMK AO2 RAB27 SLP229 P0000 60000 T02670239 10267 20222 58006 $

时间: 13:11 (18:11 UTC)


TAF: 丢失

超过4000个机场的气象观测和天气预报(METAR&TAF报告)。

可查询的气象台以黄色和红色小点在地图上表示。

将鼠标移到小点上方,可查看气象台名称。

然后点击查看天气观测和预报。

如需切换地图:点击带黑十字的绿色按钮放大地图;点击带横线的绿色按钮缩小地图;或者点击绿色箭头查看邻近地区的地图。


METAR-TAF: